sensor_id;sensor_type;location;lat;lon;timestamp;temperature;humidity
39315;DHT22;28703;44.412;11.918;2023-05-07T00:00:07;20.80;99.30
39315;DHT22;28703;44.412;11.918;2023-05-07T00:02:34;20.70;99.30
39315;DHT22;28703;44.412;11.918;2023-05-07T00:05:01;20.70;99.30
39315;DHT22;28703;44.412;11.918;2023-05-07T00:07:28;20.70;99.20
39315;DHT22;28703;44.412;11.918;2023-05-07T00:09:54;20.70;99.00
39315;DHT22;28703;44.412;11.918;2023-05-07T00:12:20;20.70;99.00
39315;DHT22;28703;44.412;11.918;2023-05-07T00:14:46;20.70;99.00
39315;DHT22;28703;44.412;11.918;2023-05-07T00:17:30;20.70;98.90
39315;DHT22;28703;44.412;11.918;2023-05-07T00:22:41;20.70;98.70
39315;DHT22;28703;44.412;11.918;2023-05-07T00:25:25;20.60;98.70
39315;DHT22;28703;44.412;11.918;2023-05-07T00:27:51;20.50;98.60
39315;DHT22;28703;44.412;11.918;2023-05-07T00:30:17;20.50;98.60
39315;DHT22;28703;44.412;11.918;2023-05-07T00:32:43;20.40;98.60
39315;DHT22;28703;44.412;11.918;2023-05-07T00:35:11;20.40;98.60
39315;DHT22;28703;44.412;11.918;2023-05-07T00:37:37;20.40;98.60
39315;DHT22;28703;44.412;11.918;2023-05-07T00:40:03;20.40;98.60
39315;DHT22;28703;44.412;11.918;2023-05-07T00:48:07;20.30;98.60
39315;DHT22;28703;44.412;11.918;2023-05-07T00:50:33;20.20;98.60
39315;DHT22;28703;44.412;11.918;2023-05-07T00:55:45;20.20;98.70
39315;DHT22;28703;44.412;11.918;2023-05-07T00:58:11;20.10;98.70
39315;DHT22;28703;44.412;11.918;2023-05-07T01:00:37;20.10;98.80
39315;DHT22;28703;44.412;11.918;2023-05-07T01:05:48;20.00;98.80
39315;DHT22;28703;44.412;11.918;2023-05-07T01:08:53;20.00;98.90
39315;DHT22;28703;44.412;11.918;2023-05-07T01:11:22;19.90;99.00
39315;DHT22;28703;44.412;11.918;2023-05-07T01:14:07;19.90;98.90
39315;DHT22;28703;44.412;11.918;2023-05-07T01:19:20;19.90;98.90
39315;DHT22;28703;44.412;11.918;2023-05-07T01:21:48;19.90;99.00
39315;DHT22;28703;44.412;11.918;2023-05-07T01:24:15;19.80;99.00
39315;DHT22;28703;44.412;11.918;2023-05-07T01:26:43;19.80;99.00
39315;DHT22;28703;44.412;11.918;2023-05-07T01:29:34;19.80;99.00
39315;DHT22;28703;44.412;11.918;2023-05-07T01:32:01;19.80;99.10
39315;DHT22;28703;44.412;11.918;2023-05-07T01:37:15;19.80;99.10
39315;DHT22;28703;44.412;11.918;2023-05-07T01:39:41;19.70;99.10
39315;DHT22;28703;44.412;11.918;2023-05-07T01:42:08;19.80;99.00
39315;DHT22;28703;44.412;11.918;2023-05-07T01:44:52;19.70;99.10
39315;DHT22;28703;44.412;11.918;2023-05-07T01:47:56;19.60;99.00
39315;DHT22;28703;44.412;11.918;2023-05-07T01:50:23;19.60;99.20
39315;DHT22;28703;44.412;11.918;2023-05-07T01:52:50;19.50;99.10
39315;DHT22;28703;44.412;11.918;2023-05-07T01:55:35;19.50;99.20
39315;DHT22;28703;44.412;11.918;2023-05-07T02:03:32;19.40;99.40
39315;DHT22;28703;44.412;11.918;2023-05-07T02:06:07;19.40;99.40
39315;DHT22;28703;44.412;11.918;2023-05-07T02:08:55;19.30;99.30
39315;DHT22;28703;44.412;11.918;2023-05-07T02:11:21;19.30;99.30
39315;DHT22;28703;44.412;11.918;2023-05-07T02:13:47;19.30;99.30
39315;DHT22;28703;44.412;11.918;2023-05-07T02:19:17;19.30;99.30
39315;DHT22;28703;44.412;11.918;2023-05-07T02:22:02;19.20;99.30
39315;DHT22;28703;44.412;11.918;2023-05-07T02:24:29;19.20;99.40
39315;DHT22;28703;44.412;11.918;2023-05-07T02:30:18;19.20;99.40
39315;DHT22;28703;44.412;11.918;2023-05-07T02:33:02;19.20;99.40
39315;DHT22;28703;44.412;11.918;2023-05-07T02:38:33;19.10;99.40
39315;DHT22;28703;44.412;11.918;2023-05-07T02:41:18;19.10;99.30
39315;DHT22;28703;44.412;11.918;2023-05-07T02:43:44;19.10;99.40
39315;DHT22;28703;44.412;11.918;2023-05-07T02:46:10;19.00;99.40
39315;DHT22;28703;44.412;11.918;2023-05-07T02:48:40;18.90;99.30
39315;DHT22;28703;44.412;11.918;2023-05-07T02:51:06;18.90;99.30
39315;DHT22;28703;44.412;11.918;2023-05-07T02:53:34;18.90;99.30
39315;DHT22;28703;44.412;11.918;2023-05-07T02:56:20;18.90;99.30
39315;DHT22;28703;44.412;11.918;2023-05-07T02:59:05;18.80;99.40
39315;DHT22;28703;44.412;11.918;2023-05-07T03:01:54;18.70;99.40
39315;DHT22;28703;44.412;11.918;2023-05-07T03:04:20;18.70;99.40
39315;DHT22;28703;44.412;11.918;2023-05-07T03:06:46;18.70;99.30
39315;DHT22;28703;44.412;11.918;2023-05-07T03:12:16;18.70;99.20
39315;DHT22;28703;44.412;11.918;2023-05-07T03:14:41;18.60;99.20
39315;DHT22;28703;44.412;11.918;2023-05-07T03:17:07;18.60;99.30
39315;DHT22;28703;44.412;11.918;2023-05-07T03:19:33;18.60;99.40
39315;DHT22;28703;44.412;11.918;2023-05-07T03:21:59;18.60;99.50
39315;DHT22;28703;44.412;11.918;2023-05-07T03:24:43;18.60;99.50
39315;DHT22;28703;44.412;11.918;2023-05-07T03:27:09;18.60;99.50
39315;DHT22;28703;44.412;11.918;2023-05-07T03:29:36;18.50;99.40
39315;DHT22;28703;44.412;11.918;2023-05-07T03:32:20;18.50;99.40
39315;DHT22;28703;44.412;11.918;2023-05-07T03:34:47;18.40;99.60
39315;DHT22;28703;44.412;11.918;2023-05-07T03:37:13;18.50;99.60
39315;DHT22;28703;44.412;11.918;2023-05-07T03:39:57;18.50;99.60
39315;DHT22;28703;44.412;11.918;2023-05-07T03:42:23;18.40;99.60
39315;DHT22;28703;44.412;11.918;2023-05-07T03:48:17;18.40;99.60
39315;DHT22;28703;44.412;11.918;2023-05-07T03:50:43;18.40;99.60
39315;DHT22;28703;44.412;11.918;2023-05-07T03:53:27;18.40;99.60
39315;DHT22;28703;44.412;11.918;2023-05-07T03:58:39;18.40;99.60
39315;DHT22;28703;44.412;11.918;2023-05-07T04:01:09;18.40;99.60
39315;DHT22;28703;44.412;11.918;2023-05-07T04:06:38;18.30;99.90
39315;DHT22;28703;44.412;11.918;2023-05-07T04:09:04;18.30;99.70
39315;DHT22;28703;44.412;11.918;2023-05-07T04:14:15;18.20;99.70
39315;DHT22;28703;44.412;11.918;2023-05-07T04:19:26;18.30;99.70
39315;DHT22;28703;44.412;11.918;2023-05-07T04:21:53;18.30;99.70
39315;DHT22;28703;44.412;11.918;2023-05-07T04:24:19;18.30;99.70
39315;DHT22;28703;44.412;11.918;2023-05-07T04:27:04;18.30;99.60
39315;DHT22;28703;44.412;11.918;2023-05-07T04:29:32;18.30;99.60
39315;DHT22;28703;44.412;11.918;2023-05-07T04:37:28;18.00;99.90
39315;DHT22;28703;44.412;11.918;2023-05-07T04:40:31;18.00;99.90
39315;DHT22;28703;44.412;11.918;2023-05-07T04:42:59;18.00;99.90
39315;DHT22;28703;44.412;11.918;2023-05-07T04:48:15;18.10;99.90
39315;DHT22;28703;44.412;11.918;2023-05-07T04:50:42;18.20;99.90
39315;DHT22;28703;44.412;11.918;2023-05-07T04:53:26;18.20;99.90
39315;DHT22;28703;44.412;11.918;2023-05-07T04:55:57;18.30;99.90
39315;DHT22;28703;44.412;11.918;2023-05-07T04:58:29;18.20;99.90
39315;DHT22;28703;44.412;11.918;2023-05-07T05:00:58;18.20;99.90
39315;DHT22;28703;44.412;11.918;2023-05-07T05:06:46;18.20;99.90
39315;DHT22;28703;44.412;11.918;2023-05-07T05:12:19;18.30;99.90
39315;DHT22;28703;44.412;11.918;2023-05-07T05:15:04;18.30;99.90
39315;DHT22;28703;44.412;11.918;2023-05-07T05:17:32;18.30;99.90
39315;DHT22;28703;44.412;11.918;2023-05-07T05:20:17;18.30;99.90
39315;DHT22;28703;44.412;11.918;2023-05-07T05:22:44;18.40;99.90
39315;DHT22;28703;44.412;11.918;2023-05-07T05:25:12;18.40;99.90
39315;DHT22;28703;44.412;11.918;2023-05-07T05:27:38;18.50;99.90
39315;DHT22;28703;44.412;11.918;2023-05-07T05:30:05;18.50;99.90
39315;DHT22;28703;44.412;11.918;2023-05-07T05:32:32;18.50;99.90
39315;DHT22;28703;44.412;11.918;2023-05-07T05:34:59;18.50;99.90
39315;DHT22;28703;44.412;11.918;2023-05-07T05:37:25;18.60;99.90
39315;DHT22;28703;44.412;11.918;2023-05-07T05:40:12;18.60;99.90
39315;DHT22;28703;44.412;11.918;2023-05-07T05:42:38;18.70;99.90
39315;DHT22;28703;44.412;11.918;2023-05-07T05:45:04;18.70;99.90
39315;DHT22;28703;44.412;11.918;2023-05-07T05:47:31;18.70;99.90
39315;DHT22;28703;44.412;11.918;2023-05-07T05:49:58;18.70;99.90
39315;DHT22;28703;44.412;11.918;2023-05-07T05:52:25;18.80;99.90
39315;DHT22;28703;44.412;11.918;2023-05-07T05:54:51;18.80;99.90
39315;DHT22;28703;44.412;11.918;2023-05-07T05:57:18;18.90;99.90
39315;DHT22;28703;44.412;11.918;2023-05-07T06:02:33;18.90;99.90
39315;DHT22;28703;44.412;11.918;2023-05-07T06:04:58;19.00;99.90
39315;DHT22;28703;44.412;11.918;2023-05-07T06:10:10;19.10;99.90
39315;DHT22;28703;44.412;11.918;2023-05-07T06:12:37;19.20;99.90
39315;DHT22;28703;44.412;11.918;2023-05-07T06:15:06;19.30;99.90
39315;DHT22;28703;44.412;11.918;2023-05-07T06:17:33;19.40;99.90
39315;DHT22;28703;44.412;11.918;2023-05-07T06:19:59;19.40;99.90
39315;DHT22;28703;44.412;11.918;2023-05-07T06:22:25;19.50;99.90
39315;DHT22;28703;44.412;11.918;2023-05-07T06:24:52;19.60;99.90
39315;DHT22;28703;44.412;11.918;2023-05-07T06:27:18;19.70;99.90
39315;DHT22;28703;44.412;11.918;2023-05-07T06:29:45;19.80;99.90
39315;DHT22;28703;44.412;11.918;2023-05-07T06:32:14;19.90;99.90
39315;DHT22;28703;44.412;11.918;2023-05-07T06:34:45;19.90;99.90
39315;DHT22;28703;44.412;11.918;2023-05-07T06:37:29;20.10;99.90
39315;DHT22;28703;44.412;11.918;2023-05-07T06:40:00;20.10;99.90
39315;DHT22;28703;44.412;11.918;2023-05-07T06:42:27;20.10;99.90
39315;DHT22;28703;44.412;11.918;2023-05-07T06:44:58;20.20;99.90
39315;DHT22;28703;44.412;11.918;2023-05-07T06:47:24;20.30;99.90
39315;DHT22;28703;44.412;11.918;2023-05-07T06:49:53;20.30;99.90
39315;DHT22;28703;44.412;11.918;2023-05-07T06:52:23;20.40;99.90
39315;DHT22;28703;44.412;11.918;2023-05-07T06:54:52;20.40;99.90
39315;DHT22;28703;44.412;11.918;2023-05-07T06:57:40;20.50;99.90
39315;DHT22;28703;44.412;11.918;2023-05-07T07:02:58;20.60;99.90
39315;DHT22;28703;44.412;11.918;2023-05-07T07:05:29;20.70;99.90
39315;DHT22;28703;44.412;11.918;2023-05-07T07:08:14;20.80;99.90
39315;DHT22;28703;44.412;11.918;2023-05-07T07:10:40;20.80;99.90
39315;DHT22;28703;44.412;11.918;2023-05-07T07:13:07;20.80;99.90
39315;DHT22;28703;44.412;11.918;2023-05-07T07:15:33;20.90;99.90
39315;DHT22;28703;44.412;11.918;2023-05-07T07:17:59;20.90;99.90
39315;DHT22;28703;44.412;11.918;2023-05-07T07:20:44;20.90;99.90
39315;DHT22;28703;44.412;11.918;2023-05-07T07:23:11;21.00;99.90
39315;DHT22;28703;44.412;11.918;2023-05-07T07:25:37;21.10;99.90
39315;DHT22;28703;44.412;11.918;2023-05-07T07:28:07;21.10;99.90
39315;DHT22;28703;44.412;11.918;2023-05-07T07:30:34;21.20;99.90
39315;DHT22;28703;44.412;11.918;2023-05-07T07:33:00;21.30;99.90
39315;DHT22;28703;44.412;11.918;2023-05-07T07:35:48;21.30;99.90
39315;DHT22;28703;44.412;11.918;2023-05-07T07:38:14;21.30;99.70
39315;DHT22;28703;44.412;11.918;2023-05-07T07:40:40;21.40;99.60
39315;DHT22;28703;44.412;11.918;2023-05-07T07:43:07;21.50;99.60
39315;DHT22;28703;44.412;11.918;2023-05-07T07:45:34;21.60;99.50
39315;DHT22;28703;44.412;11.918;2023-05-07T07:48:01;21.70;99.60
39315;DHT22;28703;44.412;11.918;2023-05-07T07:50:49;21.70;99.50
39315;DHT22;28703;44.412;11.918;2023-05-07T07:53:17;21.70;99.60
39315;DHT22;28703;44.412;11.918;2023-05-07T07:55:44;21.70;99.70
39315;DHT22;28703;44.412;11.918;2023-05-07T07:58:13;21.60;99.40
39315;DHT22;28703;44.412;11.918;2023-05-07T08:00:42;21.70;99.60
39315;DHT22;28703;44.412;11.918;2023-05-07T08:03:11;21.70;99.50
39315;DHT22;28703;44.412;11.918;2023-05-07T08:05:56;21.70;99.40
39315;DHT22;28703;44.412;11.918;2023-05-07T08:08:23;21.80;99.30
39315;DHT22;28703;44.412;11.918;2023-05-07T08:10:49;21.80;99.30
39315;DHT22;28703;44.412;11.918;2023-05-07T08:13:34;21.90;99.30
39315;DHT22;28703;44.412;11.918;2023-05-07T08:22:11;22.00;98.80
39315;DHT22;28703;44.412;11.918;2023-05-07T08:24:38;22.10;98.70
39315;DHT22;28703;44.412;11.918;2023-05-07T08:27:04;22.00;98.20
39315;DHT22;28703;44.412;11.918;2023-05-07T08:29:30;21.90;98.20
39315;DHT22;28703;44.412;11.918;2023-05-07T08:31:57;21.90;98.00
39315;DHT22;28703;44.412;11.918;2023-05-07T08:34:23;22.00;98.20
39315;DHT22;28703;44.412;11.918;2023-05-07T08:36:51;21.90;98.30
39315;DHT22;28703;44.412;11.918;2023-05-07T08:39:20;21.90;98.40
39315;DHT22;28703;44.412;11.918;2023-05-07T08:41:50;22.00;98.30
39315;DHT22;28703;44.412;11.918;2023-05-07T08:44:39;22.00;98.40
39315;DHT22;28703;44.412;11.918;2023-05-07T08:47:07;22.20;98.20
39315;DHT22;28703;44.412;11.918;2023-05-07T08:49:34;22.20;98.30
39315;DHT22;28703;44.412;11.918;2023-05-07T08:52:05;22.30;98.30
39315;DHT22;28703;44.412;11.918;2023-05-07T08:57:28;22.20;98.20
39315;DHT22;28703;44.412;11.918;2023-05-07T09:03:00;22.40;98.40
39315;DHT22;28703;44.412;11.918;2023-05-07T09:05:27;22.50;98.40
39315;DHT22;28703;44.412;11.918;2023-05-07T09:07:58;22.50;98.30
39315;DHT22;28703;44.412;11.918;2023-05-07T09:10:26;22.60;98.10
39315;DHT22;28703;44.412;11.918;2023-05-07T09:12:52;22.60;97.90
39315;DHT22;28703;44.412;11.918;2023-05-07T09:15:19;22.40;98.10
39315;DHT22;28703;44.412;11.918;2023-05-07T09:17:44;22.50;98.10
39315;DHT22;28703;44.412;11.918;2023-05-07T09:20:11;22.60;98.50
39315;DHT22;28703;44.412;11.918;2023-05-07T09:22:56;22.70;98.40
39315;DHT22;28703;44.412;11.918;2023-05-07T09:25:31;22.80;98.40
39315;DHT22;28703;44.412;11.918;2023-05-07T09:28:03;22.80;98.20
39315;DHT22;28703;44.412;11.918;2023-05-07T09:33:37;23.00;97.90
39315;DHT22;28703;44.412;11.918;2023-05-07T09:36:05;23.00;97.50
39315;DHT22;28703;44.412;11.918;2023-05-07T09:38:33;23.00;97.50
39315;DHT22;28703;44.412;11.918;2023-05-07T09:41:18;23.20;97.40
39315;DHT22;28703;44.412;11.918;2023-05-07T09:44:01;23.30;97.30
39315;DHT22;28703;44.412;11.918;2023-05-07T09:46:36;23.30;97.00
39315;DHT22;28703;44.412;11.918;2023-05-07T09:49:11;23.30;97.00
39315;DHT22;28703;44.412;11.918;2023-05-07T09:52:18;23.30;97.10
39315;DHT22;28703;44.412;11.918;2023-05-07T09:55:06;23.40;96.90
39315;DHT22;28703;44.412;11.918;2023-05-07T09:57:52;23.40;96.60
39315;DHT22;28703;44.412;11.918;2023-05-07T10:00:37;23.50;96.40
39315;DHT22;28703;44.412;11.918;2023-05-07T10:03:24;23.60;96.50
39315;DHT22;28703;44.412;11.918;2023-05-07T10:06:00;23.70;96.50
39315;DHT22;28703;44.412;11.918;2023-05-07T10:08:46;23.70;96.20
39315;DHT22;28703;44.412;11.918;2023-05-07T10:11:13;23.70;95.70
39315;DHT22;28703;44.412;11.918;2023-05-07T10:13:42;23.80;96.10
39315;DHT22;28703;44.412;11.918;2023-05-07T10:16:09;23.90;96.10
39315;DHT22;28703;44.412;11.918;2023-05-07T10:18:41;24.00;95.90
39315;DHT22;28703;44.412;11.918;2023-05-07T10:24:32;24.10;95.50
39315;DHT22;28703;44.412;11.918;2023-05-07T10:27:18;24.20;95.20
39315;DHT22;28703;44.412;11.918;2023-05-07T10:33:00;24.30;95.00
39315;DHT22;28703;44.412;11.918;2023-05-07T10:35:38;24.30;95.10
39315;DHT22;28703;44.412;11.918;2023-05-07T10:38:13;24.40;95.20
39315;DHT22;28703;44.412;11.918;2023-05-07T10:41:16;24.50;95.10
39315;DHT22;28703;44.412;11.918;2023-05-07T10:44:01;24.30;95.10
39315;DHT22;28703;44.412;11.918;2023-05-07T10:46:30;24.50;95.10
39315;DHT22;28703;44.412;11.918;2023-05-07T10:49:14;24.60;95.00
39315;DHT22;28703;44.412;11.918;2023-05-07T10:52:25;24.60;94.90
39315;DHT22;28703;44.412;11.918;2023-05-07T10:57:50;24.60;94.90
39315;DHT22;28703;44.412;11.918;2023-05-07T11:03:05;24.80;94.90
39315;DHT22;28703;44.412;11.918;2023-05-07T11:06:12;24.80;94.70
39315;DHT22;28703;44.412;11.918;2023-05-07T11:08:58;24.90;94.60
39315;DHT22;28703;44.412;11.918;2023-05-07T11:11:50;24.90;94.60
39315;DHT22;28703;44.412;11.918;2023-05-07T11:14:45;25.00;94.30
39315;DHT22;28703;44.412;11.918;2023-05-07T11:17:26;25.00;94.70
39315;DHT22;28703;44.412;11.918;2023-05-07T11:20:02;25.10;94.70
39315;DHT22;28703;44.412;11.918;2023-05-07T11:22:38;25.20;94.80
39315;DHT22;28703;44.412;11.918;2023-05-07T11:25:26;25.40;94.90
39315;DHT22;28703;44.412;11.918;2023-05-07T11:28:08;25.40;94.90
39315;DHT22;28703;44.412;11.918;2023-05-07T11:31:00;25.50;94.80
39315;DHT22;28703;44.412;11.918;2023-05-07T11:33:45;25.50;95.10
39315;DHT22;28703;44.412;11.918;2023-05-07T11:36:15;25.60;94.70
39315;DHT22;28703;44.412;11.918;2023-05-07T11:38:46;25.50;94.80
39315;DHT22;28703;44.412;11.918;2023-05-07T11:41:12;25.50;94.90
39315;DHT22;28703;44.412;11.918;2023-05-07T11:43:54;25.70;94.90
39315;DHT22;28703;44.412;11.918;2023-05-07T11:46:21;25.70;94.80
39315;DHT22;28703;44.412;11.918;2023-05-07T11:48:47;25.70;94.80
39315;DHT22;28703;44.412;11.918;2023-05-07T11:51:19;25.80;94.70
39315;DHT22;28703;44.412;11.918;2023-05-07T11:53:45;25.90;94.60
39315;DHT22;28703;44.412;11.918;2023-05-07T11:56:34;25.90;94.70
39315;DHT22;28703;44.412;11.918;2023-05-07T11:59:01;26.10;94.70
39315;DHT22;28703;44.412;11.918;2023-05-07T12:01:27;26.00;94.60
39315;DHT22;28703;44.412;11.918;2023-05-07T12:07:19;26.10;94.50
39315;DHT22;28703;44.412;11.918;2023-05-07T12:09:46;26.10;94.30
39315;DHT22;28703;44.412;11.918;2023-05-07T12:12:13;26.20;94.20
39315;DHT22;28703;44.412;11.918;2023-05-07T12:14:43;26.20;94.20
39315;DHT22;28703;44.412;11.918;2023-05-07T12:17:30;26.30;94.20
39315;DHT22;28703;44.412;11.918;2023-05-07T12:20:15;26.40;94.10
39315;DHT22;28703;44.412;11.918;2023-05-07T12:22:41;26.40;93.70
39315;DHT22;28703;44.412;11.918;2023-05-07T12:25:07;26.50;93.90
39315;DHT22;28703;44.412;11.918;2023-05-07T12:27:37;26.70;93.80
39315;DHT22;28703;44.412;11.918;2023-05-07T12:30:22;26.80;93.70
39315;DHT22;28703;44.412;11.918;2023-05-07T12:32:55;27.10;93.80
39315;DHT22;28703;44.412;11.918;2023-05-07T12:35:31;27.20;93.80
39315;DHT22;28703;44.412;11.918;2023-05-07T12:37:58;27.40;94.20
39315;DHT22;28703;44.412;11.918;2023-05-07T12:40:39;27.60;94.40
39315;DHT22;28703;44.412;11.918;2023-05-07T12:43:25;27.70;94.30
39315;DHT22;28703;44.412;11.918;2023-05-07T12:46:10;27.90;94.20
39315;DHT22;28703;44.412;11.918;2023-05-07T12:48:41;28.00;94.20
39315;DHT22;28703;44.412;11.918;2023-05-07T12:51:09;28.10;94.40
39315;DHT22;28703;44.412;11.918;2023-05-07T12:53:40;28.30;94.10
39315;DHT22;28703;44.412;11.918;2023-05-07T12:56:10;28.40;94.00
39315;DHT22;28703;44.412;11.918;2023-05-07T12:58:37;28.60;93.90
39315;DHT22;28703;44.412;11.918;2023-05-07T13:01:07;28.70;93.80
39315;DHT22;28703;44.412;11.918;2023-05-07T13:03:36;28.70;93.70
39315;DHT22;28703;44.412;11.918;2023-05-07T13:06:06;28.80;93.80
39315;DHT22;28703;44.412;11.918;2023-05-07T13:11:55;29.10;94.30
39315;DHT22;28703;44.412;11.918;2023-05-07T13:14:21;29.20;93.20
39315;DHT22;28703;44.412;11.918;2023-05-07T13:16:47;29.30;93.60
39315;DHT22;28703;44.412;11.918;2023-05-07T13:19:13;29.40;93.40
39315;DHT22;28703;44.412;11.918;2023-05-07T13:21:58;29.20;93.10
39315;DHT22;28703;44.412;11.918;2023-05-07T13:24:24;29.10;93.30
39315;DHT22;28703;44.412;11.918;2023-05-07T13:27:08;29.20;93.30
39315;DHT22;28703;44.412;11.918;2023-05-07T13:29:54;29.30;93.30
39315;DHT22;28703;44.412;11.918;2023-05-07T13:35:05;29.60;93.10
39315;DHT22;28703;44.412;11.918;2023-05-07T13:37:50;29.40;93.20
39315;DHT22;28703;44.412;11.918;2023-05-07T13:40:18;29.30;93.30
39315;DHT22;28703;44.412;11.918;2023-05-07T13:42:48;29.00;93.20
39315;DHT22;28703;44.412;11.918;2023-05-07T13:45:51;28.90;93.40
39315;DHT22;28703;44.412;11.918;2023-05-07T13:48:18;28.70;93.20
39315;DHT22;28703;44.412;11.918;2023-05-07T13:51:03;28.70;93.40
39315;DHT22;28703;44.412;11.918;2023-05-07T13:53:28;28.80;93.60
39315;DHT22;28703;44.412;11.918;2023-05-07T13:55:55;29.00;93.40
39315;DHT22;28703;44.412;11.918;2023-05-07T13:58:40;29.20;93.40
39315;DHT22;28703;44.412;11.918;2023-05-07T14:04:09;29.40;92.60
39315;DHT22;28703;44.412;11.918;2023-05-07T14:06:35;29.60;92.60
39315;DHT22;28703;44.412;11.918;2023-05-07T14:09:04;29.70;92.40
39315;DHT22;28703;44.412;11.918;2023-05-07T14:14:33;29.90;92.00
39315;DHT22;28703;44.412;11.918;2023-05-07T14:17:01;30.00;91.90
39315;DHT22;28703;44.412;11.918;2023-05-07T14:22:13;30.30;91.90
39315;DHT22;28703;44.412;11.918;2023-05-07T14:24:40;30.40;92.00
39315;DHT22;28703;44.412;11.918;2023-05-07T14:30:19;30.60;90.70
39315;DHT22;28703;44.412;11.918;2023-05-07T14:32:56;30.70;90.80
39315;DHT22;28703;44.412;11.918;2023-05-07T14:35:41;30.70;90.70
39315;DHT22;28703;44.412;11.918;2023-05-07T14:38:13;30.80;90.40
39315;DHT22;28703;44.412;11.918;2023-05-07T14:40:39;30.70;90.30
39315;DHT22;28703;44.412;11.918;2023-05-07T14:43:05;30.80;90.30
39315;DHT22;28703;44.412;11.918;2023-05-07T14:45:31;30.90;90.30
39315;DHT22;28703;44.412;11.918;2023-05-07T14:48:00;31.00;90.40
39315;DHT22;28703;44.412;11.918;2023-05-07T14:50:26;31.10;90.20
39315;DHT22;28703;44.412;11.918;2023-05-07T14:55:55;31.20;89.80
39315;DHT22;28703;44.412;11.918;2023-05-07T14:58:21;31.20;89.70
39315;DHT22;28703;44.412;11.918;2023-05-07T15:00:50;31.30;89.50
39315;DHT22;28703;44.412;11.918;2023-05-07T15:03:34;31.30;88.90
39315;DHT22;28703;44.412;11.918;2023-05-07T15:06:02;31.30;89.20
39315;DHT22;28703;44.412;11.918;2023-05-07T15:08:31;31.40;88.60
39315;DHT22;28703;44.412;11.918;2023-05-07T15:10:57;31.50;89.00
39315;DHT22;28703;44.412;11.918;2023-05-07T15:13:23;31.60;88.80
39315;DHT22;28703;44.412;11.918;2023-05-07T15:15:52;31.70;88.80
39315;DHT22;28703;44.412;11.918;2023-05-07T15:18:55;31.80;88.40
39315;DHT22;28703;44.412;11.918;2023-05-07T15:24:25;32.00;88.30
39315;DHT22;28703;44.412;11.918;2023-05-07T15:29:55;32.10;87.80
39315;DHT22;28703;44.412;11.918;2023-05-07T15:32:40;32.10;87.60
39315;DHT22;28703;44.412;11.918;2023-05-07T15:35:06;32.00;86.10
39315;DHT22;28703;44.412;11.918;2023-05-07T15:37:54;31.80;86.10
39315;DHT22;28703;44.412;11.918;2023-05-07T15:40:21;31.80;85.70
39315;DHT22;28703;44.412;11.918;2023-05-07T15:43:06;31.80;86.40
39315;DHT22;28703;44.412;11.918;2023-05-07T15:45:42;31.80;85.80
39315;DHT22;28703;44.412;11.918;2023-05-07T15:48:09;31.90;86.80
39315;DHT22;28703;44.412;11.918;2023-05-07T15:50:40;31.90;86.80
39315;DHT22;28703;44.412;11.918;2023-05-07T15:53:13;32.00;86.70
39315;DHT22;28703;44.412;11.918;2023-05-07T15:55:58;31.90;86.00
39315;DHT22;28703;44.412;11.918;2023-05-07T15:58:23;31.90;86.10
39315;DHT22;28703;44.412;11.918;2023-05-07T16:01:02;31.90;86.20
39315;DHT22;28703;44.412;11.918;2023-05-07T16:03:33;31.80;85.30
39315;DHT22;28703;44.412;11.918;2023-05-07T16:06:03;31.80;85.20
39315;DHT22;28703;44.412;11.918;2023-05-07T16:08:34;31.60;85.00
39315;DHT22;28703;44.412;11.918;2023-05-07T16:11:01;31.40;84.80
39315;DHT22;28703;44.412;11.918;2023-05-07T16:13:26;31.30;84.40
39315;DHT22;28703;44.412;11.918;2023-05-07T16:19:35;31.30;83.70
39315;DHT22;28703;44.412;11.918;2023-05-07T16:22:07;31.20;83.40
39315;DHT22;28703;44.412;11.918;2023-05-07T16:27:40;31.00;83.80
39315;DHT22;28703;44.412;11.918;2023-05-07T16:30:10;31.00;84.50
39315;DHT22;28703;44.412;11.918;2023-05-07T16:35:58;30.90;85.10
39315;DHT22;28703;44.412;11.918;2023-05-07T16:38:45;30.70;85.00
39315;DHT22;28703;44.412;11.918;2023-05-07T16:44:00;30.50;85.80
39315;DHT22;28703;44.412;11.918;2023-05-07T16:46:26;30.40;86.40
39315;DHT22;28703;44.412;11.918;2023-05-07T16:48:52;30.20;86.50
39315;DHT22;28703;44.412;11.918;2023-05-07T16:51:18;30.10;87.00
39315;DHT22;28703;44.412;11.918;2023-05-07T16:53:44;30.00;88.00
39315;DHT22;28703;44.412;11.918;2023-05-07T16:56:10;30.00;87.60
39315;DHT22;28703;44.412;11.918;2023-05-07T16:58:36;30.00;88.00
39315;DHT22;28703;44.412;11.918;2023-05-07T17:01:39;30.00;88.40
39315;DHT22;28703;44.412;11.918;2023-05-07T17:04:07;30.10;88.50
39315;DHT22;28703;44.412;11.918;2023-05-07T17:06:33;30.10;88.80
39315;DHT22;28703;44.412;11.918;2023-05-07T17:08:59;30.10;89.10
39315;DHT22;28703;44.412;11.918;2023-05-07T17:11:25;30.00;89.20
39315;DHT22;28703;44.412;11.918;2023-05-07T17:13:55;29.90;89.30
39315;DHT22;28703;44.412;11.918;2023-05-07T17:19:06;29.70;89.70
39315;DHT22;28703;44.412;11.918;2023-05-07T17:21:32;29.60;90.00
39315;DHT22;28703;44.412;11.918;2023-05-07T17:23:58;29.60;90.10
39315;DHT22;28703;44.412;11.918;2023-05-07T17:26:25;29.40;90.20
39315;DHT22;28703;44.412;11.918;2023-05-07T17:28:52;29.30;90.30
39315;DHT22;28703;44.412;11.918;2023-05-07T17:31:18;29.10;90.50
39315;DHT22;28703;44.412;11.918;2023-05-07T17:36:48;28.90;90.80
39315;DHT22;28703;44.412;11.918;2023-05-07T17:39:14;28.70;91.00
39315;DHT22;28703;44.412;11.918;2023-05-07T17:42:01;28.50;91.20
39315;DHT22;28703;44.412;11.918;2023-05-07T17:47:49;28.10;91.40
39315;DHT22;28703;44.412;11.918;2023-05-07T17:50:34;28.00;91.50
39315;DHT22;28703;44.412;11.918;2023-05-07T17:53:00;27.80;91.70
39315;DHT22;28703;44.412;11.918;2023-05-07T17:55:26;27.70;91.70
39315;DHT22;28703;44.412;11.918;2023-05-07T17:57:53;27.60;91.90
39315;DHT22;28703;44.412;11.918;2023-05-07T18:03:23;27.30;92.20
39315;DHT22;28703;44.412;11.918;2023-05-07T18:05:49;27.10;92.10
39315;DHT22;28703;44.412;11.918;2023-05-07T18:11:00;26.90;92.10
39315;DHT22;28703;44.412;11.918;2023-05-07T18:13:26;26.80;92.10
39315;DHT22;28703;44.412;11.918;2023-05-07T18:15:52;26.70;92.30
39315;DHT22;28703;44.412;11.918;2023-05-07T18:18:19;26.60;92.40
39315;DHT22;28703;44.412;11.918;2023-05-07T18:20:49;26.60;92.60
39315;DHT22;28703;44.412;11.918;2023-05-07T18:26:37;26.30;92.80
39315;DHT22;28703;44.412;11.918;2023-05-07T18:29:05;26.20;93.00